LTCK/MSR METAR and TAF weather

Enter ICAO airport designator
Station Type Date Time Source
LTCK METAR 2022/06/28 07:50 UTC NOAA

LTCK 280750Z VRB06KT 9999 FEW040 26/07 Q1012


Station Type Date Time Source
LTCK Decoded METAR 2022/06/28 07:50 UTC NOAA

Mus Tur-Afb , Turkey (LTCK) 38-45N 041-40E
Jun 28, 2022 - 03:50 AM EDT / 2022.06.28 0750 UTC
Wind: Variable at 7 MPH (6 KT):0
Visibility: greater than 7 mile(s):0
Sky conditions: mostly clear
Temperature: 78 F (26 C)
Dew Point: 44 F (7 C)
Relative Humidity: 29%
Pressure (altimeter): 29.88 in. Hg (1012 hPa)
ob: LTCK 280750Z VRB06KT 9999 FEW040 26/07 Q1012
cycle: 8

Station Type Date Time Source
LTCK TAF UTC NOAA

Error!

Example: see airport list